Shaw Island, Washington
Current Conditions -  °F | °C
As of 10:53 AM on Friday 24 Oct 2014 (Local Time) from KFHR Reporting Station
Few Clouds Few Clouds  
Wind Chill: 53°   Ceiling: Unl
Heat Index: 53°   Visibility: 10mi
Dew Point: 45°   Wind: 6mph
Humidity: 74%   Direction: 40°NE
Pressure: 30.06"   Gusts: NA
Location:  48.58°N, 122.93°W
Report Text: KFHR 241753Z AUTO 04005KT 10SM FEW025 12/07 A3006 RMK AO2 SLP179 60000 T01170072 10122 20100 50002
Loading
Personal Weather Stations






























Interactive Weather Map
Tropical Storm Tracking
New forecast layout! Learn more

10-Day Weather Forecast

Advertisements
Track Severe Weather on mobile